Time;durP1;ratioP1;P1;durP2;ratioP2;P2;SDS_P1;SDS_P2;PMS_P1;PMS_P2;Temp;Humidity;BMP_temperature;BMP_pressure;BME280_temperature;BME280_humidity;BME280_pressure;Samples;Min_cycle;Max_cycle;Signal;HPM_P1;HPM_P2
2022/01/27 00:02:34;;;;;;;17.90;9.43;;;4.30;99.90;;;;;;5122527;27;20253;-65
2022/01/27 00:05:12;;;;;;;22.65;12.23;;;4.30;99.90;;;;;;5112374;27;20759;-66
2022/01/27 00:07:41;;;;;;;16.85;9.73;;;4.30;99.90;;;;;;5107569;27;20249;-66
2022/01/27 00:10:19;;;;;;;25.05;13.20;;;4.30;99.90;;;;;;5113562;27;20230;-66
2022/01/27 00:12:47;;;;;;;22.80;11.57;;;4.30;99.90;;;;;;5097337;27;20237;-67
2022/01/27 00:15:16;;;;;;;23.83;13.82;;;4.30;99.90;;;;;;5114389;27;20218;-65
2022/01/27 00:17:55;;;;;;;18.45;10.02;;;4.30;99.90;;;;;;5109431;27;20880;-66
2022/01/27 00:20:23;;;;;;;17.55;11.07;;;4.20;99.90;;;;;;5116487;27;20320;-65
2022/01/27 00:22:52;;;;;;;16.60;10.18;;;4.20;99.90;;;;;;5129362;27;20224;-66
2022/01/27 00:25:21;;;;;;;20.10;12.40;;;4.30;99.90;;;;;;5114386;27;20191;-67
2022/01/27 00:27:49;;;;;;;14.77;10.50;;;4.20;99.90;;;;;;5116432;27;20214;-67
2022/01/27 00:30:18;;;;;;;17.98;10.52;;;4.30;99.90;;;;;;5098930;27;20195;-66
2022/01/27 00:32:48;;;;;;;21.23;11.20;;;4.20;99.90;;;;;;5119900;27;20245;-66
2022/01/27 00:35:16;;;;;;;24.35;12.95;;;4.30;99.90;;;;;;5113509;27;20187;-65
2022/01/27 00:37:44;;;;;;;16.90;10.98;;;4.20;99.90;;;;;;5113205;27;20221;-66
2022/01/27 00:40:13;;;;;;;17.92;10.63;;;4.30;99.90;;;;;;5105214;27;20196;-66
2022/01/27 00:42:42;;;;;;;21.10;10.18;;;4.30;99.90;;;;;;5100141;27;20223;-67
2022/01/27 00:45:10;;;;;;;20.00;11.18;;;4.30;99.90;;;;;;5122526;27;20195;-67
2022/01/27 00:47:38;;;;;;;26.42;10.93;;;4.20;99.90;;;;;;5104291;28;20214;-68
2022/01/27 00:50:09;;;;;;;17.35;9.98;;;4.30;99.90;;;;;;5111663;27;20190;-67
2022/01/27 00:52:41;;;;;;;16.58;10.05;;;4.20;99.90;;;;;;5117040;27;20605;-67
2022/01/27 00:55:12;;;;;;;21.70;11.57;;;4.30;99.90;;;;;;5113503;27;20837;-68
2022/01/27 00:57:58;;;;;;;20.48;12.05;;;4.20;99.90;;;;;;5125794;27;20282;-65
2022/01/27 01:00:31;;;;;;;17.73;10.32;;;4.20;99.90;;;;;;5118227;27;20611;-67
2022/01/27 01:03:04;;;;;;;17.30;9.63;;;4.30;99.90;;;;;;5106580;27;20211;-66
2022/01/27 01:05:53;;;;;;;22.25;11.05;;;4.30;99.90;;;;;;5114591;27;20264;-66
2022/01/27 01:11:51;;;;;;;21.42;11.95;;;4.30;99.90;;;;;;5082079;27;20519;-49
2022/01/27 01:14:35;;;;;;;15.93;9.50;;;4.30;99.90;;;;;;5037333;28;20722;-49
2022/01/27 01:17:10;;;;;;;20.45;10.32;;;4.20;99.90;;;;;;5041909;28;20295;-49
2022/01/27 01:19:55;;;;;;;16.95;11.05;;;4.30;99.90;;;;;;5024857;28;20204;-49
2022/01/27 01:30:50;;;;;;;25.23;11.45;;;4.20;99.90;;;;;;5044741;28;20697;-49
2022/01/27 01:33:25;;;;;;;20.00;11.23;;;4.30;99.90;;;;;;5042969;28;20283;-49
2022/01/27 01:36:05;;;;;;;20.65;11.18;;;4.20;99.90;;;;;;5044743;28;20184;-49
2022/01/27 01:38:33;;;;;;;18.40;11.57;;;4.30;99.90;;;;;;5043303;28;20239;-49
2022/01/27 01:41:01;;;;;;;18.15;10.32;;;4.30;99.90;;;;;;5042947;28;20200;-49
2022/01/27 01:43:31;;;;;;;18.77;10.20;;;4.30;99.90;;;;;;5042804;28;20223;-50
2022/01/27 01:45:59;;;;;;;17.73;9.95;;;4.30;99.90;;;;;;5044687;28;20308;-48
2022/01/27 01:48:27;;;;;;;18.20;10.73;;;4.20;99.90;;;;;;5041820;28;20299;-48
2022/01/27 01:50:57;;;;;;;19.92;9.98;;;4.30;99.90;;;;;;5044761;28;20235;-48
2022/01/27 01:53:26;;;;;;;18.20;10.60;;;4.20;99.90;;;;;;5043504;28;20243;-49
2022/01/27 01:55:54;;;;;;;21.85;11.85;;;4.20;99.90;;;;;;5044379;28;20197;-49
2022/01/27 01:58:22;;;;;;;20.73;11.25;;;4.30;99.90;;;;;;5042209;28;20244;-48
2022/01/27 02:00:51;;;;;;;16.73;9.88;;;4.20;99.90;;;;;;5042994;28;20227;-51
2022/01/27 02:03:20;;;;;;;17.75;11.48;;;4.30;99.90;;;;;;5042891;28;20250;-48
2022/01/27 02:05:52;;;;;;;20.88;12.05;;;4.20;99.90;;;;;;5044541;28;20192;-48
2022/01/27 02:08:37;;;;;;;16.08;10.07;;;4.20;99.90;;;;;;5043057;28;20222;-48
2022/01/27 02:19:27;;;;;;;18.52;9.98;;;4.20;99.90;;;;;;5034607;28;20267;-48
2022/01/27 02:21:58;;;;;;;17.92;11.55;;;4.20;99.90;;;;;;5035046;28;20505;-49
2022/01/27 02:24:29;;;;;;;15.65;10.10;;;4.20;99.90;;;;;;5028083;28;20616;-49
2022/01/27 02:26:58;;;;;;;16.85;10.63;;;4.20;99.90;;;;;;5028694;28;20318;-47
2022/01/27 02:29:26;;;;;;;18.48;10.82;;;4.20;99.90;;;;;;5030083;28;20213;-50
2022/01/27 02:31:56;;;;;;;19.40;11.43;;;4.20;99.90;;;;;;5028742;28;20271;-48
2022/01/27 02:34:25;;;;;;;18.73;10.38;;;4.20;99.90;;;;;;5030402;28;20193;-49
2022/01/27 02:36:53;;;;;;;15.55;10.30;;;4.20;99.90;;;;;;5029639;28;20243;-48
2022/01/27 02:39:22;;;;;;;20.50;12.02;;;4.20;99.90;;;;;;5026643;28;20296;-50
2022/01/27 02:41:57;;;;;;;20.30;11.23;;;4.20;99.90;;;;;;5029278;28;20311;-50
2022/01/27 02:44:30;;;;;;;19.38;10.80;;;4.20;99.90;;;;;;5029735;28;20200;-48
2022/01/27 02:46:58;;;;;;;19.45;11.43;;;4.20;99.90;;;;;;5028394;28;20225;-48
2022/01/27 02:49:27;;;;;;;15.52;10.30;;;4.20;99.90;;;;;;5029941;28;20308;-50
2022/01/27 02:51:55;;;;;;;22.95;11.27;;;4.20;99.90;;;;;;5029559;28;20275;-49
2022/01/27 02:54:24;;;;;;;18.48;10.43;;;4.20;99.90;;;;;;5029996;28;20193;-48
2022/01/27 02:57:08;;;;;;;16.40;10.30;;;4.20;99.90;;;;;;5028557;28;20247;-49
2022/01/27 02:59:36;;;;;;;17.40;10.68;;;4.20;99.90;;;;;;5029868;28;20684;-49
2022/01/27 03:02:05;;;;;;;16.55;10.00;;;4.20;99.90;;;;;;5029098;28;20315;-48
2022/01/27 03:04:34;;;;;;;16.83;10.95;;;4.20;99.90;;;;;;5027992;28;20190;-48
2022/01/27 03:07:04;;;;;;;18.25;11.02;;;4.20;99.90;;;;;;5029482;28;20225;-49
2022/01/27 03:09:34;;;;;;;18.58;10.82;;;4.20;99.90;;;;;;5029938;28;20296;-49
2022/01/27 03:12:06;;;;;;;16.33;9.98;;;4.20;99.90;;;;;;5028645;28;20315;-49
2022/01/27 03:14:35;;;;;;;16.27;10.13;;;4.20;99.90;;;;;;5029804;28;20722;-48
2022/01/27 03:17:06;;;;;;;13.32;8.75;;;4.20;99.90;;;;;;5028084;28;20216;-48
2022/01/27 03:19:36;;;;;;;21.95;11.20;;;4.20;99.90;;;;;;5030126;28;20296;-49
2022/01/27 03:22:06;;;;;;;19.15;9.95;;;4.20;99.90;;;;;;5029509;28;20224;-48
2022/01/27 03:24:36;;;;;;;15.13;9.00;;;4.20;99.90;;;;;;5029603;28;20185;-48
2022/01/27 03:27:06;;;;;;;20.58;10.88;;;4.20;99.90;;;;;;5028189;28;20282;-51
2022/01/27 03:29:34;;;;;;;16.30;9.90;;;4.20;99.90;;;;;;5029597;28;20217;-48
2022/01/27 03:32:03;;;;;;;22.05;10.10;;;4.20;99.90;;;;;;5028205;28;20217;-49
2022/01/27 03:34:31;;;;;;;19.35;11.10;;;4.20;99.90;;;;;;5027787;28;20201;-48
2022/01/27 03:36:59;;;;;;;16.58;9.43;;;4.20;99.90;;;;;;5028213;28;20216;-50
2022/01/27 03:39:27;;;;;;;15.70;9.27;;;4.20;99.90;;;;;;5027988;28;20275;-49
2022/01/27 03:41:57;;;;;;;19.85;9.85;;;4.20;99.90;;;;;;5027743;28;20620;-49
2022/01/27 03:44:26;;;;;;;14.23;9.35;;;4.20;99.90;;;;;;5028961;28;20204;-50
2022/01/27 03:46:55;;;;;;;17.58;10.52;;;4.20;99.90;;;;;;5027262;28;20635;-49
2022/01/27 03:49:23;;;;;;;14.93;9.75;;;4.20;99.90;;;;;;5016588;28;20220;-48
2022/01/27 03:51:51;;;;;;;16.83;9.98;;;4.20;99.90;;;;;;5029410;28;20220;-49
2022/01/27 03:54:19;;;;;;;14.00;9.18;;;4.30;99.90;;;;;;5028551;28;20258;-49
2022/01/27 03:56:48;;;;;;;20.10;11.43;;;4.20;99.90;;;;;;5027720;28;20344;-49
2022/01/27 03:59:17;;;;;;;19.35;9.20;;;4.20;99.90;;;;;;5024130;28;20291;-49
2022/01/27 04:01:45;;;;;;;15.55;9.35;;;4.20;99.90;;;;;;5027277;28;20237;-48
2022/01/27 04:04:14;;;;;;;14.90;9.27;;;4.20;99.90;;;;;;5026263;28;20292;-47
2022/01/27 04:06:42;;;;;;;14.32;9.85;;;4.20;99.90;;;;;;5024128;28;20235;-48
2022/01/27 04:09:12;;;;;;;17.33;8.85;;;4.20;99.90;;;;;;5028216;28;20209;-48
2022/01/27 04:11:41;;;;;;;14.85;8.82;;;4.30;99.90;;;;;;5028073;28;20589;-50
2022/01/27 04:14:10;;;;;;;13.05;9.30;;;4.30;99.90;;;;;;5029002;28;20239;-50
2022/01/27 04:16:40;;;;;;;17.58;10.65;;;4.30;99.90;;;;;;5027689;28;20225;-48
2022/01/27 04:19:08;;;;;;;17.08;10.73;;;4.20;99.90;;;;;;5027460;28;20296;-49
2022/01/27 04:21:37;;;;;;;12.73;8.45;;;4.30;99.90;;;;;;5028413;28;20677;-49
2022/01/27 04:24:06;;;;;;;13.63;8.50;;;4.20;99.90;;;;;;5028739;28;20219;-49
2022/01/27 04:26:41;;;;;;;17.42;9.23;;;4.20;99.90;;;;;;5027764;28;21178;-47
2022/01/27 04:29:09;;;;;;;14.43;8.68;;;4.30;99.90;;;;;;5027864;28;20208;-49
2022/01/27 04:31:39;;;;;;;15.82;9.23;;;4.20;99.90;;;;;;5027994;28;20311;-49
2022/01/27 04:34:08;;;;;;;18.23;9.93;;;4.30;99.90;;;;;;5026835;28;20193;-49
2022/01/27 04:36:37;;;;;;;12.68;8.75;;;4.20;99.90;;;;;;5028208;28;20244;-49
2022/01/27 04:39:13;;;;;;;12.60;8.75;;;4.20;99.90;;;;;;5028657;28;20217;-48
2022/01/27 04:41:47;;;;;;;15.85;9.52;;;4.30;99.90;;;;;;5028770;28;20219;-49
2022/01/27 04:44:23;;;;;;;16.30;8.98;;;4.20;99.90;;;;;;5023655;28;20235;-50
2022/01/27 04:46:57;;;;;;;14.68;8.57;;;4.30;99.90;;;;;;5028053;28;20648;-48
2022/01/27 04:49:26;;;;;;;12.18;8.65;;;4.30;99.90;;;;;;5009462;28;20317;-49
2022/01/27 04:51:57;;;;;;;13.18;8.73;;;4.30;99.90;;;;;;5028229;28;20774;-49
2022/01/27 04:54:30;;;;;;;14.80;9.10;;;4.30;99.90;;;;;;5028011;28;20560;-48
2022/01/27 04:57:01;;;;;;;11.68;8.07;;;4.30;99.90;;;;;;5027867;28;20217;-48
2022/01/27 04:59:35;;;;;;;14.93;8.85;;;4.30;99.90;;;;;;5027983;28;20684;-49
2022/01/27 05:02:07;;;;;;;16.95;9.75;;;4.30;99.90;;;;;;5027781;28;20212;-48
2022/01/27 05:04:42;;;;;;;14.30;8.13;;;4.30;99.90;;;;;;5028664;28;20675;-49
2022/01/27 05:07:10;;;;;;;16.33;10.20;;;4.30;99.90;;;;;;5028417;28;20224;-49
2022/01/27 05:09:46;;;;;;;16.83;10.45;;;4.30;99.90;;;;;;5028192;28;20300;-49
2022/01/27 05:12:24;;;;;;;13.02;9.07;;;4.30;99.90;;;;;;5027278;28;20251;-49
2022/01/27 05:14:53;;;;;;;15.77;9.00;;;4.30;99.90;;;;;;5028426;28;20239;-50
2022/01/27 05:17:21;;;;;;;11.75;8.32;;;4.30;99.90;;;;;;5027039;28;20228;-49
2022/01/27 05:19:51;;;;;;;16.50;10.23;;;4.30;99.90;;;;;;5027305;28;20295;-48
2022/01/27 05:22:19;;;;;;;13.57;9.10;;;4.30;99.90;;;;;;5028246;28;20730;-49
2022/01/27 05:24:47;;;;;;;14.35;9.27;;;4.30;99.90;;;;;;5026410;28;20713;-49
2022/01/27 05:27:15;;;;;;;15.60;8.80;;;4.30;99.90;;;;;;5027011;28;20259;-49
2022/01/27 05:29:43;;;;;;;17.70;9.23;;;4.20;99.90;;;;;;5028818;28;20219;-49
2022/01/27 05:32:11;;;;;;;22.10;9.95;;;4.30;99.90;;;;;;5027672;28;20822;-49
2022/01/27 05:34:39;;;;;;;11.98;8.30;;;4.30;99.90;;;;;;5027987;28;20734;-50
2022/01/27 05:37:09;;;;;;;14.75;10.07;;;4.30;99.90;;;;;;5026849;28;20229;-48
2022/01/27 05:39:41;;;;;;;14.25;9.30;;;4.30;99.90;;;;;;5028531;28;20680;-49
2022/01/27 05:42:09;;;;;;;17.15;8.30;;;4.20;99.90;;;;;;5024434;28;20216;-50
2022/01/27 05:44:37;;;;;;;10.05;7.22;;;4.30;99.90;;;;;;5027685;28;20194;-47
2022/01/27 05:47:05;;;;;;;12.90;8.60;;;4.30;99.90;;;;;;5025653;28;20224;-50
2022/01/27 05:49:34;;;;;;;16.05;8.93;;;4.30;99.90;;;;;;5027269;28;20459;-48
2022/01/27 05:52:02;;;;;;;14.75;8.88;;;4.30;99.90;;;;;;5024477;28;20292;-48
2022/01/27 05:54:34;;;;;;;15.75;9.02;;;4.30;99.90;;;;;;5027663;28;20221;-48
2022/01/27 05:57:02;;;;;;;16.17;9.30;;;4.30;99.90;;;;;;5029556;28;20221;-49
2022/01/27 05:59:30;;;;;;;14.50;8.52;;;4.30;99.90;;;;;;5030467;28;20696;-48
2022/01/27 06:01:58;;;;;;;15.55;9.23;;;4.30;99.90;;;;;;5030589;28;21599;-50
2022/01/27 06:04:26;;;;;;;14.23;8.40;;;4.30;99.90;;;;;;5032249;28;20220;-49
2022/01/27 06:06:54;;;;;;;14.50;9.10;;;4.30;99.90;;;;;;5032085;28;20244;-49
2022/01/27 06:09:23;;;;;;;11.57;8.45;;;4.30;99.90;;;;;;5031653;28;20278;-48
2022/01/27 06:11:52;;;;;;;14.70;9.20;;;4.30;99.90;;;;;;5030699;28;20221;-49
2022/01/27 06:14:20;;;;;;;14.43;8.45;;;4.30;99.90;;;;;;5031793;28;20295;-49
2022/01/27 06:16:48;;;;;;;13.98;7.95;;;4.30;99.90;;;;;;5031304;28;20221;-49
2022/01/27 06:19:17;;;;;;;12.35;7.97;;;4.30;99.90;;;;;;5031507;28;20627;-48
2022/01/27 06:21:45;;;;;;;12.85;9.60;;;4.30;99.90;;;;;;5031722;28;20374;-49
2022/01/27 06:24:13;;;;;;;9.88;7.13;;;4.30;99.90;;;;;;5031260;28;20292;-50
2022/01/27 06:26:41;;;;;;;15.98;9.30;;;4.30;99.90;;;;;;5030619;28;20256;-48
2022/01/27 06:29:10;;;;;;;14.77;8.68;;;4.30;99.90;;;;;;5032327;28;20932;-49
2022/01/27 06:31:39;;;;;;;13.20;8.63;;;4.30;99.90;;;;;;5031943;28;20221;-48
2022/01/27 06:34:08;;;;;;;15.70;10.15;;;4.30;99.90;;;;;;5030834;28;20209;-49
2022/01/27 06:36:36;;;;;;;17.35;9.70;;;4.30;99.90;;;;;;5031911;28;20244;-51
2022/01/27 06:39:04;;;;;;;13.10;9.45;;;4.30;99.90;;;;;;5032075;28;20209;-49
2022/01/27 06:41:32;;;;;;;14.88;9.50;;;4.30;99.90;;;;;;5031701;28;20197;-50
2022/01/27 06:44:02;;;;;;;13.63;9.35;;;4.30;99.90;;;;;;5030313;28;20228;-49
2022/01/27 06:46:32;;;;;;;17.55;9.93;;;4.30;99.90;;;;;;5040262;22;20193;-67
2022/01/27 06:49:00;;;;;;;13.52;8.77;;;4.30;99.90;;;;;;5055981;28;20215;-66
2022/01/27 06:51:31;;;;;;;14.75;9.15;;;4.30;99.90;;;;;;5044537;28;20262;-68
2022/01/27 06:54:00;;;;;;;15.25;8.95;;;4.30;99.90;;;;;;5049129;28;20209;-66
2022/01/27 06:56:28;;;;;;;11.98;8.52;;;4.30;99.90;;;;;;5046713;28;20871;-66
2022/01/27 06:58:56;;;;;;;16.50;8.30;;;4.30;99.90;;;;;;5051122;28;20204;-66
2022/01/27 07:01:24;;;;;;;11.30;8.63;;;4.30;99.90;;;;;;5052028;28;20185;-67
2022/01/27 07:03:54;;;;;;;16.95;9.13;;;4.30;99.90;;;;;;5052055;28;20189;-67
2022/01/27 07:06:22;;;;;;;14.48;7.75;;;4.30;99.90;;;;;;5051560;28;20200;-66
2022/01/27 07:08:50;;;;;;;14.43;9.85;;;4.30;99.90;;;;;;5052038;28;20317;-65
2022/01/27 07:11:18;;;;;;;14.57;9.35;;;4.30;99.90;;;;;;5051663;28;20613;-68
2022/01/27 07:13:46;;;;;;;18.02;8.73;;;4.30;99.90;;;;;;5051792;28;20209;-67
2022/01/27 07:16:14;;;;;;;15.02;8.98;;;4.30;99.90;;;;;;5043124;28;20654;-67
2022/01/27 07:18:42;;;;;;;15.00;10.30;;;4.30;99.90;;;;;;5019227;28;20228;-68
2022/01/27 07:21:11;;;;;;;15.27;9.43;;;4.30;99.90;;;;;;5051989;28;20280;-67
2022/01/27 07:23:42;;;;;;;13.35;8.15;;;4.30;99.90;;;;;;5051924;28;20598;-67
2022/01/27 07:26:11;;;;;;;12.10;7.97;;;4.30;99.90;;;;;;5050297;28;20216;-66
2022/01/27 07:28:39;;;;;;;12.90;7.65;;;4.30;99.90;;;;;;5051145;28;20346;-67
2022/01/27 07:31:09;;;;;;;10.65;8.50;;;4.30;99.90;;;;;;5051781;28;20605;-67
2022/01/27 07:33:37;;;;;;;15.75;9.30;;;4.30;99.90;;;;;;5051618;28;20701;-67
2022/01/27 07:36:06;;;;;;;15.65;9.20;;;4.30;99.90;;;;;;5051315;28;20189;-67
2022/01/27 07:38:35;;;;;;;13.77;8.02;;;4.30;99.90;;;;;;5050899;28;20274;-67
2022/01/27 07:41:03;;;;;;;13.52;8.50;;;4.30;99.90;;;;;;5050018;28;20628;-67
2022/01/27 07:43:31;;;;;;;12.52;8.55;;;4.30;99.90;;;;;;5050726;28;20299;-67
2022/01/27 07:46:00;;;;;;;14.82;8.13;;;4.30;99.90;;;;;;5051300;28;20664;-66
2022/01/27 07:48:28;;;;;;;11.38;7.85;;;4.30;99.90;;;;;;5050775;28;20732;-67
2022/01/27 07:50:56;;;;;;;14.30;8.35;;;4.30;99.90;;;;;;5046889;28;20268;-65
2022/01/27 07:53:24;;;;;;;12.45;8.20;;;4.30;99.90;;;;;;5033431;28;20652;-67
2022/01/27 07:55:53;;;;;;;12.50;7.68;;;4.30;99.90;;;;;;5041170;28;20212;-66
2022/01/27 07:58:21;;;;;;;14.50;8.13;;;4.30;99.90;;;;;;5050585;28;20263;-66
2022/01/27 08:00:49;;;;;;;14.02;8.50;;;4.30;99.90;;;;;;5052700;28;20197;-67
2022/01/27 08:03:22;;;;;;;14.30;7.60;;;4.30;99.90;;;;;;5038718;28;20674;-67
2022/01/27 08:05:51;;;;;;;14.45;8.38;;;4.30;99.90;;;;;;5032708;28;20201;-67
2022/01/27 08:08:19;;;;;;;15.15;9.00;;;4.30;99.90;;;;;;5042027;28;20225;-66
2022/01/27 08:10:48;;;;;;;12.38;8.57;;;4.30;99.90;;;;;;5034714;28;20188;-67
2022/01/27 08:13:17;;;;;;;13.60;8.68;;;4.30;99.90;;;;;;5049699;28;20252;-67
2022/01/27 08:15:46;;;;;;;14.38;8.40;;;4.30;99.90;;;;;;5050590;28;20196;-66
2022/01/27 08:18:34;;;;;;;14.95;9.30;;;4.30;99.90;;;;;;5036609;28;20300;-68
2022/01/27 08:21:02;;;;;;;13.30;7.97;;;4.30;99.90;;;;;;5049143;28;20444;-66
2022/01/27 08:23:30;;;;;;;13.82;9.73;;;4.30;99.90;;;;;;5050476;28;20212;-67
2022/01/27 08:26:04;;;;;;;14.32;8.68;;;4.30;99.90;;;;;;5050800;28;20558;-66
2022/01/27 08:28:39;;;;;;;10.15;7.22;;;4.30;99.90;;;;;;5049587;28;20669;-67
2022/01/27 08:31:08;;;;;;;12.80;8.13;;;4.30;99.90;;;;;;5049120;28;20242;-67
2022/01/27 08:33:39;;;;;;;16.27;7.90;;;4.30;99.90;;;;;;5050069;28;20216;-68
2022/01/27 08:36:07;;;;;;;10.80;7.75;;;4.30;99.90;;;;;;5049905;28;20651;-67
2022/01/27 08:38:41;;;;;;;15.48;9.05;;;4.40;99.90;;;;;;5050034;28;20236;-66
2022/01/27 08:41:10;;;;;;;12.50;9.02;;;4.30;99.90;;;;;;5048911;28;20189;-68
2022/01/27 08:43:39;;;;;;;8.77;6.97;;;4.40;99.90;;;;;;5038653;28;20623;-66
2022/01/27 08:46:07;;;;;;;14.48;9.35;;;4.40;99.90;;;;;;5042853;28;20584;-66
2022/01/27 08:48:38;;;;;;;14.07;8.35;;;4.40;99.90;;;;;;5049018;28;20238;-66
2022/01/27 08:51:10;;;;;;;13.63;8.38;;;4.30;99.90;;;;;;5050125;28;20261;-68
2022/01/27 08:54:00;;;;;;;15.55;9.00;;;4.30;99.90;;;;;;5049692;28;20223;-66
2022/01/27 08:56:28;;;;;;;13.25;8.77;;;4.30;99.90;;;;;;5041643;28;20193;-66
2022/01/27 08:58:58;;;;;;;11.48;7.30;;;4.30;99.90;;;;;;5050385;28;20212;-65
2022/01/27 09:01:27;;;;;;;12.27;7.88;;;4.40;99.90;;;;;;5049383;28;20192;-67
2022/01/27 09:03:55;;;;;;;13.10;8.32;;;4.30;99.90;;;;;;5046875;28;20254;-68
2022/01/27 09:06:24;;;;;;;11.93;8.15;;;4.30;99.90;;;;;;5029865;28;20189;-68
2022/01/27 09:08:55;;;;;;;14.15;9.10;;;4.30;99.90;;;;;;5038210;28;20209;-66
2022/01/27 09:11:35;;;;;;;14.35;7.80;;;4.40;99.90;;;;;;5049196;28;20223;-67
2022/01/27 09:14:05;;;;;;;15.00;8.80;;;4.30;99.90;;;;;;5047017;28;20196;-67
2022/01/27 09:16:35;;;;;;;14.18;8.27;;;4.30;99.90;;;;;;5039562;28;20232;-67
2022/01/27 09:19:25;;;;;;;14.07;8.55;;;4.40;99.90;;;;;;5042990;28;21846;-66
2022/01/27 09:21:54;;;;;;;14.10;8.85;;;4.30;99.90;;;;;;5031592;28;20239;-67
2022/01/27 09:24:51;;;;;;;14.63;9.18;;;4.40;99.90;;;;;;5049684;28;20184;-67
2022/01/27 09:27:21;;;;;;;11.95;7.82;;;4.40;99.90;;;;;;5049465;28;20227;-68
2022/01/27 09:29:57;;;;;;;13.40;7.65;;;4.40;99.90;;;;;;5049392;28;20202;-67
2022/01/27 09:32:26;;;;;;;12.15;8.65;;;4.40;99.90;;;;;;5052258;28;20224;-67
2022/01/27 09:34:56;;;;;;;12.30;7.95;;;4.30;99.90;;;;;;5053400;28;20215;-67
2022/01/27 09:37:24;;;;;;;15.52;9.10;;;4.30;99.90;;;;;;5052404;28;20208;-66
2022/01/27 09:39:52;;;;;;;12.68;7.95;;;4.40;99.90;;;;;;5052620;28;21818;-67
2022/01/27 09:42:21;;;;;;;11.30;7.40;;;4.40;99.90;;;;;;5051240;28;20731;-66
2022/01/27 09:44:52;;;;;;;12.30;8.35;;;4.30;99.90;;;;;;5052470;28;20272;-66
2022/01/27 09:47:29;;;;;;;12.38;8.05;;;4.40;99.90;;;;;;5053156;28;20240;-66
2022/01/27 09:50:07;;;;;;;13.40;8.40;;;4.40;99.90;;;;;;5053081;28;20239;-68
2022/01/27 09:52:35;;;;;;;12.57;7.60;;;4.30;99.90;;;;;;5053050;28;20266;-67
2022/01/27 09:55:04;;;;;;;11.75;7.43;;;4.40;99.90;;;;;;5053162;28;20747;-66
2022/01/27 09:57:32;;;;;;;11.70;7.78;;;4.40;99.90;;;;;;5051993;28;20212;-66
2022/01/27 10:00:00;;;;;;;13.13;8.35;;;4.40;99.90;;;;;;5053048;28;20424;-66
2022/01/27 10:02:30;;;;;;;11.85;7.50;;;4.40;99.90;;;;;;5052672;28;20216;-67
2022/01/27 10:04:59;;;;;;;12.10;7.60;;;4.40;99.90;;;;;;5052879;28;20181;-68
2022/01/27 10:07:32;;;;;;;10.50;7.38;;;4.40;99.90;;;;;;5043659;28;20262;-66
2022/01/27 10:10:09;;;;;;;13.80;8.45;;;4.40;99.90;;;;;;5035330;28;20193;-67
2022/01/27 10:12:41;;;;;;;13.68;8.38;;;4.40;99.90;;;;;;5047857;28;20216;-66
2022/01/27 10:15:13;;;;;;;13.65;7.53;;;4.40;99.90;;;;;;5048776;28;20236;-66
2022/01/27 10:18:04;;;;;;;11.38;7.22;;;4.40;99.90;;;;;;5052461;28;20224;-68
2022/01/27 10:20:35;;;;;;;11.73;7.70;;;4.40;99.90;;;;;;5053416;28;20188;-66
2022/01/27 10:23:12;;;;;;;10.85;7.80;;;4.40;99.90;;;;;;5048075;28;20307;-67
2022/01/27 10:25:46;;;;;;;11.13;7.70;;;4.40;99.90;;;;;;5052898;28;20646;-66
2022/01/27 10:28:31;;;;;;;12.35;7.03;;;4.40;99.90;;;;;;5052540;28;20866;-67
2022/01/27 10:31:05;;;;;;;11.75;7.55;;;4.40;99.90;;;;;;5053243;28;20192;-65
2022/01/27 10:33:51;;;;;;;8.50;6.35;;;4.40;99.90;;;;;;5052776;28;20216;-66
2022/01/27 10:36:24;;;;;;;10.38;7.80;;;4.40;99.90;;;;;;5052135;28;20266;-67
2022/01/27 10:38:54;;;;;;;12.73;6.93;;;4.40;99.90;;;;;;5053041;28;20312;-67
2022/01/27 10:41:22;;;;;;;11.63;7.65;;;4.40;99.90;;;;;;5047618;28;20690;-68
2022/01/27 10:43:50;;;;;;;9.50;6.75;;;4.40;99.90;;;;;;5039910;28;20224;-68
2022/01/27 10:46:24;;;;;;;10.65;7.18;;;4.40;99.90;;;;;;5050610;28;20212;-67
2022/01/27 10:48:59;;;;;;;8.88;6.38;;;4.40;99.90;;;;;;5050065;28;20211;-67
2022/01/27 10:51:33;;;;;;;11.05;7.13;;;4.40;99.90;;;;;;5050711;28;20191;-67
2022/01/27 10:54:04;;;;;;;10.05;7.00;;;4.40;99.90;;;;;;5051398;28;20216;-67
2022/01/27 10:56:35;;;;;;;8.77;6.57;;;4.40;99.90;;;;;;5034414;28;20224;-68
2022/01/27 10:59:06;;;;;;;11.75;7.47;;;4.40;99.90;;;;;;5034542;28;20270;-67
2022/01/27 11:01:38;;;;;;;9.73;6.75;;;4.40;99.90;;;;;;5033727;28;20247;-68
2022/01/27 11:04:08;;;;;;;9.43;7.20;;;4.40;99.90;;;;;;5026805;28;20200;-67
2022/01/27 11:06:52;;;;;;;8.52;6.00;;;4.40;99.90;;;;;;5052665;28;20594;-68
2022/01/27 11:09:20;;;;;;;9.15;5.90;;;4.40;99.90;;;;;;5032449;28;20239;-66
2022/01/27 11:11:49;;;;;;;8.77;6.13;;;4.40;99.90;;;;;;5015147;28;20271;-67
2022/01/27 11:14:19;;;;;;;7.70;5.93;;;4.40;99.90;;;;;;5032158;28;20684;-68
2022/01/27 11:16:50;;;;;;;9.07;5.85;;;4.50;99.90;;;;;;5050558;28;20228;-68
2022/01/27 11:19:33;;;;;;;10.65;6.00;;;4.40;99.90;;;;;;5051849;28;20560;-66
2022/01/27 11:22:08;;;;;;;7.55;5.45;;;4.50;99.90;;;;;;5050100;28;20227;-67
2022/01/27 11:25:05;;;;;;;10.00;6.03;;;4.40;99.90;;;;;;5051917;28;20184;-68
2022/01/27 11:27:34;;;;;;;7.65;5.63;;;4.50;99.90;;;;;;5039588;28;20614;-68
2022/01/27 11:30:06;;;;;;;13.23;7.78;;;4.40;99.90;;;;;;5051471;28;20689;-66
2022/01/27 11:32:39;;;;;;;8.15;6.05;;;4.50;99.90;;;;;;5045814;28;20236;-65
2022/01/27 11:35:17;;;;;;;8.27;5.72;;;4.50;99.90;;;;;;5045454;28;20255;-68
2022/01/27 11:37:51;;;;;;;6.53;5.35;;;4.50;99.90;;;;;;5031481;28;20229;-68
2022/01/27 11:40:21;;;;;;;8.45;6.00;;;4.50;99.90;;;;;;5044269;28;20980;-67
2022/01/27 11:43:07;;;;;;;8.10;5.38;;;4.50;99.90;;;;;;5048037;28;20686;-66
2022/01/27 11:45:38;;;;;;;5.53;4.40;;;4.50;99.90;;;;;;5044943;28;20535;-68
2022/01/27 11:48:10;;;;;;;7.75;5.65;;;4.50;99.90;;;;;;5051063;28;20220;-68
2022/01/27 11:50:51;;;;;;;7.70;5.18;;;4.50;99.90;;;;;;5051739;28;20192;-67
2022/01/27 11:53:36;;;;;;;5.72;4.68;;;4.50;99.90;;;;;;5050766;28;20228;-67
2022/01/27 11:56:06;;;;;;;8.05;5.63;;;4.50;99.90;;;;;;5051199;28;20216;-66
2022/01/27 11:58:46;;;;;;;7.35;4.70;;;4.50;99.90;;;;;;5035227;28;20307;-68
2022/01/27 12:01:23;;;;;;;7.97;5.22;;;4.50;99.90;;;;;;5039202;28;20267;-69
2022/01/27 12:04:15;;;;;;;6.88;4.25;;;4.50;99.90;;;;;;5052005;28;20654;-67
2022/01/27 12:07:06;;;;;;;6.50;4.70;;;4.50;99.90;;;;;;5051275;28;20590;-67
2022/01/27 12:09:40;;;;;;;6.70;5.10;;;4.50;99.90;;;;;;5031294;28;20875;-66
2022/01/27 12:12:28;;;;;;;6.43;5.10;;;4.50;99.90;;;;;;5043421;28;20285;-67
2022/01/27 12:15:07;;;;;;;7.78;5.15;;;4.50;99.90;;;;;;5050360;28;20231;-67
2022/01/27 12:17:36;;;;;;;6.55;4.60;;;4.50;99.90;;;;;;5044743;28;20717;-67
2022/01/27 12:20:08;;;;;;;6.78;4.90;;;4.50;99.90;;;;;;5040399;28;20185;-68
2022/01/27 12:23:03;;;;;;;7.68;4.07;;;4.50;99.90;;;;;;5030452;28;20227;-66
2022/01/27 12:25:51;;;;;;;7.65;4.65;;;4.50;99.90;;;;;;5042549;28;20607;-66
2022/01/27 12:28:20;;;;;;;4.82;3.90;;;4.50;99.90;;;;;;5048519;28;20769;-66
2022/01/27 12:30:59;;;;;;;5.88;4.40;;;4.50;99.90;;;;;;5045415;28;20189;-66
2022/01/27 12:33:27;;;;;;;5.90;3.65;;;4.50;99.90;;;;;;5031120;28;20247;-67
2022/01/27 12:36:01;;;;;;;5.40;4.30;;;4.50;99.90;;;;;;5031354;28;20240;-67
2022/01/27 12:38:37;;;;;;;6.00;3.90;;;4.50;99.90;;;;;;5050131;28;20656;-66
2022/01/27 12:41:06;;;;;;;7.90;3.95;;;4.50;99.90;;;;;;5051016;28;20192;-67
2022/01/27 12:43:34;;;;;;;7.43;4.05;;;4.50;99.90;;;;;;5049826;28;20303;-68
2022/01/27 12:46:09;;;;;;;5.30;3.42;;;4.50;99.90;;;;;;5051781;28;20217;-67
2022/01/27 12:48:46;;;;;;;4.40;3.53;;;4.50;99.90;;;;;;5049640;28;20230;-67
2022/01/27 12:51:49;;;;;;;4.80;4.30;;;4.50;99.90;;;;;;5049948;28;20193;-67
2022/01/27 12:54:26;;;;;;;5.00;3.65;;;4.50;99.90;;;;;;5032101;28;20215;-67
2022/01/27 12:56:56;;;;;;;6.55;4.55;;;4.50;99.90;;;;;;5048042;28;20228;-66
2022/01/27 12:59:24;;;;;;;4.53;3.95;;;4.50;99.90;;;;;;5050273;28;20238;-67
2022/01/27 13:01:57;;;;;;;5.93;3.85;;;4.50;99.90;;;;;;5049107;28;20299;-67
2022/01/27 13:04:26;;;;;;;5.25;3.95;;;4.50;99.90;;;;;;5042795;28;20200;-65
2022/01/27 13:06:55;;;;;;;5.47;3.72;;;4.50;99.90;;;;;;5049281;28;20223;-66
2022/01/27 13:09:23;;;;;;;5.40;3.50;;;4.50;99.90;;;;;;5050147;28;20219;-68
2022/01/27 13:11:53;;;;;;;3.20;2.80;;;4.50;99.90;;;;;;5049448;28;20216;-66
2022/01/27 13:14:24;;;;;;;5.57;3.55;;;4.50;99.90;;;;;;5049462;28;20238;-68
2022/01/27 13:16:57;;;;;;;4.60;3.60;;;4.50;99.90;;;;;;5048691;28;20216;-68
2022/01/27 13:19:42;;;;;;;3.45;2.97;;;4.50;99.90;;;;;;5030259;28;20698;-68
2022/01/27 13:22:16;;;;;;;5.05;3.47;;;4.60;99.90;;;;;;5047795;28;20216;-68
2022/01/27 13:24:46;;;;;;;4.28;3.25;;;4.50;99.90;;;;;;5047298;28;20234;-69
2022/01/27 13:27:15;;;;;;;5.18;3.80;;;4.50;99.90;;;;;;5047699;28;20877;-68
2022/01/27 13:29:48;;;;;;;6.28;3.60;;;4.50;99.90;;;;;;5049639;28;20231;-68